createdAt,value
2023-04-17T00:00:25.446Z,34.24
2023-04-17T00:05:25.710Z,34.66
2023-04-17T00:10:24.872Z,34.56
2023-04-17T00:15:23.980Z,34.58
2023-04-17T00:20:22.133Z,35.08
2023-04-17T00:25:23.403Z,34.89
2023-04-17T00:30:20.515Z,34.99
2023-04-17T00:35:20.079Z,35.10
2023-04-17T00:40:19.027Z,35.82
2023-04-17T00:45:18.176Z,35.93
2023-04-17T00:50:19.335Z,36.15
2023-04-17T00:55:17.676Z,36.36
2023-04-17T01:00:16.785Z,36.79
2023-04-17T01:05:15.144Z,36.89
2023-04-17T01:10:14.286Z,36.89
2023-04-17T01:15:13.615Z,36.47
2023-04-17T01:20:13.815Z,37.08
2023-04-17T01:25:12.947Z,37.10
2023-04-17T01:30:11.096Z,37.21
2023-04-17T01:35:10.296Z,37.52
2023-04-17T01:40:09.456Z,37.73
2023-04-17T01:45:08.646Z,37.73
2023-04-17T01:50:07.760Z,38.67
2023-04-17T01:55:07.136Z,38.47
2023-04-17T02:00:07.307Z,38.47
2023-04-17T02:05:06.641Z,38.99
2023-04-17T02:10:04.835Z,39.09
2023-04-17T02:15:04.021Z,38.48
2023-04-17T02:20:03.216Z,38.07
2023-04-17T02:25:02.204Z,37.96
2023-04-17T02:30:01.384Z,38.07
2023-04-17T02:35:01.577Z,38.39
2023-04-17T02:39:59.753Z,38.59
2023-04-17T02:44:58.903Z,38.59
2023-04-17T02:49:58.085Z,39.11
2023-04-17T02:54:57.251Z,38.81
2023-04-17T02:59:56.397Z,38.28
2023-04-17T03:04:55.578Z,38.71
2023-04-17T03:09:55.758Z,38.81
2023-04-17T03:14:53.914Z,38.18
2023-04-17T03:19:55.033Z,38.71
2023-04-17T03:24:52.403Z,38.71
2023-04-17T03:29:51.550Z,39.13
2023-04-17T03:34:49.700Z,39.23
2023-04-17T03:39:48.830Z,38.93
2023-04-17T03:44:49.189Z,39.95
2023-04-17T03:49:49.348Z,39.65
2023-04-17T03:54:47.488Z,40.28
2023-04-17T03:59:46.669Z,39.95
2023-04-17T04:04:48.117Z,39.65
2023-04-17T04:09:46.044Z,39.33
2023-04-17T04:14:46.216Z,40.58
2023-04-17T04:19:43.357Z,40.37
2023-04-17T04:24:43.493Z,39.87
2023-04-17T04:29:41.707Z,40.08
2023-04-17T04:34:40.892Z,40.17
2023-04-17T04:39:41.071Z,39.87
2023-04-17T04:44:39.240Z,40.59
2023-04-17T04:49:39.414Z,41.02
2023-04-17T04:54:38.552Z,41.32
2023-04-17T04:59:37.979Z,41.32
2023-04-17T05:04:37.183Z,40.19
2023-04-17T05:09:36.310Z,40.37
2023-04-17T05:14:35.590Z,39.77
2023-04-17T05:19:33.869Z,40.28
2023-04-17T05:24:33.162Z,40.48
2023-04-17T05:29:33.468Z,40.50
2023-04-17T05:34:32.766Z,40.39
2023-04-17T05:39:32.075Z,40.59
2023-04-17T05:44:30.349Z,40.70
2023-04-17T05:49:29.631Z,40.39
2023-04-17T05:54:28.925Z,40.70
2023-04-17T05:59:29.167Z,40.50
2023-04-17T06:04:27.542Z,40.59
2023-04-17T06:09:26.643Z,40.39
2023-04-17T06:14:26.906Z,41.02
2023-04-17T06:19:29.197Z,41.42
2023-04-17T06:24:25.497Z,41.02
2023-04-17T06:29:24.012Z,40.59
2023-04-17T06:34:25.111Z,40.08
2023-04-17T06:39:22.387Z,40.28
2023-04-17T06:44:24.678Z,39.77
2023-04-17T06:49:21.941Z,39.37
2023-04-17T06:54:21.228Z,39.47
2023-04-17T06:59:19.557Z,40.08
2023-04-17T07:04:18.930Z,43.12
2023-04-17T07:09:17.085Z,40.66
2023-04-17T07:14:17.340Z,39.61
2023-04-17T07:19:16.595Z,38.30
2023-04-17T07:24:14.939Z,37.68
2023-04-17T07:29:14.359Z,37.07
2023-04-17T07:34:14.166Z,36.76
2023-04-17T07:39:12.533Z,36.35
2023-04-17T07:44:12.815Z,36.05
2023-04-17T07:49:12.488Z,35.73
2023-04-17T07:54:11.080Z,35.53
2023-04-17T07:59:10.504Z,35.33
2023-04-17T08:04:08.716Z,35.13
2023-04-17T08:09:08.933Z,34.92
2023-04-17T08:14:08.033Z,34.71
2023-04-17T08:19:07.357Z,34.61
2023-04-17T08:24:06.730Z,34.61
2023-04-17T08:29:05.845Z,34.51
2023-04-17T08:34:13.803Z,34.39
2023-04-17T08:39:04.572Z,34.19
2023-04-17T08:44:04.768Z,34.09
2023-04-17T08:49:01.779Z,34.09
2023-04-17T08:54:02.115Z,33.89
2023-04-17T08:59:01.409Z,33.79
2023-04-17T09:04:00.637Z,33.79
2023-04-17T09:08:59.656Z,33.67
2023-04-17T09:13:58.853Z,33.57
2023-04-17T09:18:58.108Z,33.57
2023-04-17T09:23:57.385Z,33.47
2023-04-17T09:28:56.635Z,33.37
2023-04-17T09:33:54.814Z,33.27
2023-04-17T09:38:55.116Z,33.27
2023-04-17T09:43:54.210Z,33.57
2023-04-17T09:48:53.510Z,33.77
2023-04-17T09:53:52.909Z,33.55
2023-04-17T09:58:52.104Z,33.36
2023-04-17T10:03:51.554Z,33.15
2023-04-17T10:08:50.430Z,33.15
2023-04-17T10:13:49.530Z,33.55
2023-04-17T10:18:48.888Z,33.45
2023-04-17T10:23:47.959Z,33.45
2023-04-17T10:28:47.421Z,33.36
2023-04-17T10:33:46.535Z,33.36
2023-04-17T10:38:45.942Z,33.25
2023-04-17T10:43:45.135Z,33.25
2023-04-17T10:48:43.412Z,33.25
2023-04-17T10:53:43.567Z,33.25
2023-04-17T10:58:42.780Z,33.05
2023-04-17T11:03:41.961Z,33.25
2023-04-17T11:08:41.074Z,33.14
2023-04-17T11:13:40.176Z,32.93
2023-04-17T11:18:41.476Z,32.93
2023-04-17T11:23:38.770Z,33.14
2023-04-17T11:28:37.994Z,33.34
2023-04-17T11:33:37.279Z,33.23
2023-04-17T11:38:38.558Z,33.14
2023-04-17T11:43:34.757Z,33.34
2023-04-17T11:48:34.907Z,33.34
2023-04-17T11:53:33.369Z,33.44
2023-04-17T11:58:33.552Z,33.34
2023-04-17T12:03:32.939Z,33.44
2023-04-17T12:08:32.016Z,33.14
2023-04-17T12:13:30.193Z,33.14
2023-04-17T12:18:30.364Z,33.44
2023-04-17T12:23:28.505Z,33.23
2023-04-17T12:28:28.659Z,33.44
2023-04-17T12:33:27.979Z,33.32
2023-04-17T12:38:27.202Z,33.12
2023-04-17T12:43:26.360Z,33.32
2023-04-17T12:48:24.515Z,33.42
2023-04-17T12:53:24.743Z,33.42
2023-04-17T12:58:23.923Z,33.32
2023-04-17T13:03:22.331Z,33.22
2023-04-17T13:08:24.322Z,33.42
2023-04-17T13:13:20.723Z,33.42
2023-04-17T13:18:20.881Z,33.52
2023-04-17T13:23:19.038Z,33.52
2023-04-17T13:28:20.168Z,33.42
2023-04-17T13:33:18.494Z,33.32
2023-04-17T13:38:17.725Z,33.32
2023-04-17T13:43:16.940Z,33.22
2023-04-17T13:48:16.135Z,33.12
2023-04-17T13:53:15.262Z,33.22
2023-04-17T13:58:14.487Z,33.32
2023-04-17T14:03:16.828Z,33.22
2023-04-17T14:08:12.803Z,33.12
2023-04-17T14:13:12.058Z,33.12
2023-04-17T14:18:11.282Z,33.12
2023-04-17T14:23:10.519Z,33.12
2023-04-17T14:28:09.697Z,33.12
2023-04-17T14:33:08.887Z,33.12
2023-04-17T14:38:08.088Z,33.12
2023-04-17T14:43:07.255Z,33.12
2023-04-17T14:48:06.532Z,33.02
2023-04-17T14:53:05.800Z,33.02
2023-04-17T14:58:04.990Z,33.02
2023-04-17T15:03:06.225Z,33.12
2023-04-17T15:08:03.342Z,33.12
2023-04-17T15:13:02.511Z,33.02
2023-04-17T15:18:01.676Z,33.12
2023-04-17T15:23:00.787Z,33.02
2023-04-17T15:27:59.936Z,33.00
2023-04-17T15:32:59.169Z,33.00
2023-04-17T15:37:58.321Z,33.11
2023-04-17T15:42:57.459Z,33.20
2023-04-17T15:47:56.629Z,33.11
2023-04-17T15:52:55.744Z,33.11
2023-04-17T15:57:54.204Z,33.31
2023-04-17T16:02:54.666Z,33.12
2023-04-17T16:07:52.750Z,33.20
2023-04-17T16:12:53.141Z,33.32
2023-04-17T16:17:52.255Z,33.11
2023-04-17T16:22:50.629Z,33.00
2023-04-17T16:27:50.900Z,33.11
2023-04-17T16:32:50.183Z,33.00
2023-04-17T16:37:48.310Z,33.00
2023-04-17T16:42:47.600Z,33.00
2023-04-17T16:47:48.125Z,33.00
2023-04-17T16:52:46.162Z,33.00
2023-04-17T16:57:45.604Z,32.90
2023-04-17T17:02:46.745Z,35.91
2023-04-17T17:07:45.696Z,34.81
2023-04-17T17:12:43.951Z,32.43
2023-04-17T17:17:43.294Z,32.62
2023-04-17T17:22:42.425Z,31.46
2023-04-17T17:27:41.982Z,29.81
2023-04-17T17:32:40.987Z,29.28
2023-04-17T17:37:40.238Z,28.03
2023-04-17T17:42:41.475Z,27.92
2023-04-17T17:47:39.832Z,26.89
2023-04-17T17:52:38.514Z,26.68
2023-04-17T17:57:48.804Z,26.89
2023-04-17T18:02:37.537Z,26.98
2023-04-17T18:07:36.675Z,26.46
2023-04-17T18:12:34.974Z,26.04
2023-04-17T18:17:35.175Z,25.43
2023-04-17T18:22:35.262Z,25.72
2023-04-17T18:27:32.609Z,26.13
2023-04-17T18:32:31.865Z,25.93
2023-04-17T18:37:31.109Z,25.62
2023-04-17T18:42:30.289Z,25.93
2023-04-17T18:47:29.495Z,26.34
2023-04-17T18:52:28.759Z,26.75
2023-04-17T18:57:28.975Z,26.75
2023-04-17T19:02:30.263Z,26.85
2023-04-17T19:07:27.298Z,26.54
2023-04-17T19:12:25.370Z,26.53
2023-04-17T19:17:24.036Z,25.40
2023-04-17T19:22:24.165Z,25.81
2023-04-17T19:27:24.116Z,25.40
2023-04-17T19:32:22.736Z,26.43
2023-04-17T19:37:21.535Z,26.53
2023-04-17T19:42:24.357Z,26.21
2023-04-17T19:47:20.450Z,26.21
2023-04-17T19:52:21.394Z,26.42
2023-04-17T19:57:19.912Z,27.02
2023-04-17T20:02:18.204Z,26.61
2023-04-17T20:07:19.368Z,26.51
2023-04-17T20:12:16.733Z,26.10
2023-04-17T20:17:16.038Z,26.51
2023-04-17T20:22:15.954Z,26.51
2023-04-17T20:27:15.355Z,26.51
2023-04-17T20:32:13.488Z,26.20
2023-04-17T20:37:18.250Z,25.99
2023-04-17T20:42:13.126Z,25.68
2023-04-17T20:47:11.397Z,25.49
2023-04-17T20:52:10.687Z,25.70
2023-04-17T20:57:09.913Z,25.79
2023-04-17T21:02:10.288Z,25.90
2023-04-17T21:07:08.356Z,25.68
2023-04-17T21:12:07.661Z,25.38
2023-04-17T21:17:07.911Z,25.16
2023-04-17T21:22:06.181Z,25.16
2023-04-17T21:27:05.449Z,25.07
2023-04-17T21:32:04.884Z,25.49
2023-04-17T21:37:04.034Z,25.68
2023-04-17T21:42:05.306Z,25.49
2023-04-17T21:47:02.563Z,25.48
2023-04-17T21:52:01.850Z,25.59
2023-04-17T21:57:01.107Z,25.99
2023-04-17T22:02:00.437Z,25.99
2023-04-17T22:07:01.705Z,25.68
2023-04-17T22:11:58.944Z,25.38
2023-04-17T22:16:59.394Z,25.48
2023-04-17T22:21:58.403Z,25.78
2023-04-17T22:26:56.694Z,25.78
2023-04-17T22:31:55.960Z,25.59
2023-04-17T22:36:55.225Z,25.68
2023-04-17T22:41:54.450Z,24.97
2023-04-17T22:46:53.716Z,24.87
2023-04-17T22:51:52.997Z,25.18
2023-04-17T22:56:52.282Z,25.19
2023-04-17T23:01:51.613Z,25.50
2023-04-17T23:06:50.873Z,25.71
2023-04-17T23:11:50.156Z,26.02
2023-04-17T23:16:50.747Z,26.34
2023-04-17T23:21:48.622Z,26.55
2023-04-17T23:26:49.917Z,26.86
2023-04-17T23:31:47.198Z,27.08
2023-04-17T23:36:46.456Z,27.17
2023-04-17T23:41:47.701Z,27.39
2023-04-17T23:46:46.022Z,27.71
2023-04-17T23:51:44.294Z,28.02
2023-04-17T23:56:44.584Z,28.43
